Time;durP1;ratioP1;P1;durP2;ratioP2;P2;SDS_P1;SDS_P2;PMS_P1;PMS_P2;Temp;Humidity;BMP_temperature;BMP_pressure;BME280_temperature;BME280_humidity;BME280_pressure;Samples;Min_cycle;Max_cycle;Signal;HPM_P1;HPM_P2
2022/01/13 00:01:00;;;;;;;8.07;6.13;;;22.00;29.90;;;;;;5045962;28;20460;-48
2022/01/13 00:03:26;;;;;;;8.50;6.18;;;22.00;29.90;;;;;;5040870;28;20022;-53
2022/01/13 00:05:52;;;;;;;9.05;6.45;;;22.00;29.90;;;;;;5053149;28;20313;-47
2022/01/13 00:08:17;;;;;;;8.52;6.45;;;21.90;29.90;;;;;;5060546;28;20083;-51
2022/01/13 00:10:43;;;;;;;8.60;6.75;;;21.90;29.90;;;;;;5048686;28;20029;-50
2022/01/13 00:13:13;;;;;;;7.75;5.90;;;21.90;29.90;;;;;;5049863;28;20024;-47
2022/01/13 00:16:22;;;;;;;8.25;6.03;;;21.90;29.90;;;;;;5048409;28;20056;-52
2022/01/13 00:18:40;;;;;;;9.20;6.68;;;21.90;29.90;;;;;;5043800;28;20025;-46
2022/01/13 00:21:16;;;;;;;7.68;5.60;;;21.90;29.90;;;;;;5049920;28;20155;-48
2022/01/13 00:23:47;;;;;;;8.65;5.97;;;21.90;29.90;;;;;;5057159;28;20029;-49
2022/01/13 00:26:21;;;;;;;7.55;5.88;;;21.90;30.40;;;;;;5052806;28;20097;-45
2022/01/13 00:28:49;;;;;;;8.38;6.35;;;21.90;30.00;;;;;;5020179;28;20030;-47
2022/01/13 00:31:18;;;;;;;8.20;5.65;;;21.80;29.90;;;;;;5036753;28;20329;-47
2022/01/13 00:33:46;;;;;;;10.32;6.90;;;21.90;30.00;;;;;;5056377;28;20031;-50
2022/01/13 00:36:12;;;;;;;8.10;6.40;;;21.80;30.00;;;;;;5039481;28;20026;-44
2022/01/13 00:38:38;;;;;;;7.53;6.05;;;21.80;30.00;;;;;;5056506;28;20035;-49
2022/01/13 00:41:04;;;;;;;8.07;6.13;;;21.80;30.00;;;;;;5042067;28;20029;-50
2022/01/13 00:43:31;;;;;;;7.65;5.68;;;21.80;30.00;;;;;;5054705;28;20095;-47
2022/01/13 00:45:57;;;;;;;9.05;6.20;;;21.80;30.00;;;;;;5041115;28;20322;-48
2022/01/13 00:48:23;;;;;;;8.38;6.15;;;21.80;30.00;;;;;;5053963;28;20043;-48
2022/01/13 00:50:49;;;;;;;8.40;6.18;;;21.80;30.00;;;;;;5046172;28;20459;-49
2022/01/13 00:53:16;;;;;;;9.45;6.70;;;21.80;30.00;;;;;;5037065;28;20443;-49
2022/01/13 00:55:57;;;;;;;8.18;5.80;;;21.80;30.00;;;;;;5044488;28;20021;-47
2022/01/13 00:58:25;;;;;;;7.53;6.18;;;21.80;30.00;;;;;;5057130;28;20056;-52
2022/01/13 01:00:51;;;;;;;6.78;5.28;;;21.70;30.00;;;;;;5051157;28;20030;-47
2022/01/13 01:03:17;;;;;;;8.43;5.80;;;21.70;30.00;;;;;;5037046;28;20036;-48
2022/01/13 01:05:43;;;;;;;7.50;5.80;;;21.70;30.00;;;;;;5046503;28;20101;-49
2022/01/13 01:08:09;;;;;;;7.70;6.25;;;21.70;30.00;;;;;;5036234;28;20098;-48
2022/01/13 01:10:36;;;;;;;8.77;6.50;;;21.70;30.00;;;;;;5039217;28;20021;-47
2022/01/13 01:13:14;;;;;;;7.35;5.85;;;21.70;30.00;;;;;;5035129;28;20017;-49
2022/01/13 01:15:45;;;;;;;7.70;5.88;;;21.70;30.00;;;;;;5046309;28;20065;-52
2022/01/13 01:18:17;;;;;;;7.40;5.93;;;21.70;30.00;;;;;;5036113;28;20033;-49
2022/01/13 01:20:51;;;;;;;7.45;6.40;;;21.70;30.00;;;;;;5038503;28;20032;-48
2022/01/13 01:23:22;;;;;;;7.60;6.10;;;21.70;30.00;;;;;;5036041;28;20018;-54
2022/01/13 01:26:07;;;;;;;7.80;6.45;;;21.60;30.00;;;;;;5039712;28;20067;-48
2022/01/13 01:28:43;;;;;;;5.50;4.82;;;21.70;30.00;;;;;;5037008;28;20311;-50
2022/01/13 01:31:10;;;;;;;7.32;5.93;;;21.60;30.00;;;;;;5041459;28;20472;-47
2022/01/13 01:33:40;;;;;;;9.30;7.05;;;21.60;30.00;;;;;;5036994;28;20456;-51
2022/01/13 01:36:11;;;;;;;7.75;6.20;;;21.60;30.00;;;;;;5049889;28;20021;-50
2022/01/13 01:38:37;;;;;;;7.32;6.05;;;21.60;30.10;;;;;;5036324;28;20036;-47
2022/01/13 01:41:03;;;;;;;7.25;5.75;;;21.60;30.10;;;;;;5020603;28;20412;-52
2022/01/13 01:43:29;;;;;;;7.57;5.85;;;21.60;30.10;;;;;;5052942;28;20103;-51
2022/01/13 01:45:55;;;;;;;7.50;6.07;;;21.60;30.10;;;;;;5042294;28;20425;-49
2022/01/13 01:48:21;;;;;;;8.55;5.82;;;21.60;30.10;;;;;;5031160;28;20035;-51
2022/01/13 01:50:55;;;;;;;7.25;5.80;;;21.60;30.10;;;;;;5039114;28;20036;-51
2022/01/13 01:53:23;;;;;;;8.68;6.53;;;21.60;30.20;;;;;;5038546;28;20393;-51
2022/01/13 01:55:49;;;;;;;7.72;5.93;;;21.60;30.20;;;;;;5047041;28;20482;-52
2022/01/13 01:58:14;;;;;;;9.27;7.18;;;21.60;30.20;;;;;;5045432;28;20021;-50
2022/01/13 02:00:40;;;;;;;7.85;6.40;;;21.60;30.20;;;;;;5038758;28;20021;-46
2022/01/13 02:03:06;;;;;;;6.88;5.50;;;21.50;30.10;;;;;;5040697;28;20037;-45
2022/01/13 02:05:32;;;;;;;7.40;5.65;;;21.50;30.10;;;;;;5035297;28;20355;-49
2022/01/13 02:07:58;;;;;;;7.45;5.72;;;21.50;30.20;;;;;;5038513;28;20025;-46
2022/01/13 02:10:24;;;;;;;6.65;5.22;;;21.50;30.20;;;;;;5035967;28;20079;-53
2022/01/13 02:12:59;;;;;;;6.95;5.40;;;21.50;30.20;;;;;;5037522;28;20120;-46
2022/01/13 02:15:49;;;;;;;6.95;5.38;;;21.50;30.20;;;;;;5038165;28;20473;-49
2022/01/13 02:18:15;;;;;;;7.15;4.95;;;21.50;30.20;;;;;;5045933;28;20036;-52
2022/01/13 02:20:50;;;;;;;6.60;5.20;;;21.40;30.20;;;;;;5042500;28;20485;-47
2022/01/13 02:23:35;;;;;;;5.95;4.95;;;21.50;30.30;;;;;;5052839;28;20029;-48
2022/01/13 02:26:02;;;;;;;7.05;5.80;;;21.50;30.30;;;;;;5038642;28;20110;-49
2022/01/13 02:28:29;;;;;;;7.80;5.07;;;21.40;30.20;;;;;;5018723;28;20104;-47
2022/01/13 02:30:55;;;;;;;6.20;4.82;;;21.40;30.30;;;;;;5048798;28;20332;-51
2022/01/13 02:33:21;;;;;;;6.93;5.25;;;21.40;30.30;;;;;;5048671;28;20086;-45
2022/01/13 02:35:47;;;;;;;6.82;5.30;;;21.40;30.30;;;;;;5049062;28;20024;-49
2022/01/13 02:38:13;;;;;;;6.25;5.28;;;21.40;30.30;;;;;;5024937;28;20029;-48
2022/01/13 02:40:39;;;;;;;6.07;4.78;;;21.40;30.30;;;;;;5043987;28;20071;-47
2022/01/13 02:43:06;;;;;;;6.53;5.25;;;21.40;30.30;;;;;;5043306;28;20018;-51
2022/01/13 02:45:35;;;;;;;6.40;4.88;;;21.40;30.40;;;;;;5042032;28;20021;-46
2022/01/13 02:48:27;;;;;;;5.65;4.82;;;21.40;30.40;;;;;;5052121;28;20055;-50
2022/01/13 02:50:54;;;;;;;6.00;4.57;;;21.40;30.40;;;;;;5042062;28;20025;-49
2022/01/13 02:53:20;;;;;;;5.88;4.82;;;21.40;30.40;;;;;;5036791;28;20078;-49
2022/01/13 02:55:46;;;;;;;5.13;4.43;;;21.40;30.40;;;;;;5043052;28;20068;-50
2022/01/13 02:58:17;;;;;;;5.28;4.25;;;21.40;30.40;;;;;;5044541;28;20033;-45
2022/01/13 03:00:44;;;;;;;7.07;5.18;;;21.40;30.40;;;;;;5039693;28;20021;-47
2022/01/13 03:03:12;;;;;;;5.85;4.78;;;21.40;30.60;;;;;;5041180;28;20447;-50
2022/01/13 03:05:39;;;;;;;5.70;4.57;;;21.40;30.50;;;;;;5046847;28;20036;-49
2022/01/13 03:08:08;;;;;;;5.57;4.80;;;21.40;30.50;;;;;;5040553;28;20073;-45
2022/01/13 03:10:35;;;;;;;5.80;4.82;;;21.30;30.50;;;;;;5041290;28;20112;-47
2022/01/13 03:13:01;;;;;;;5.43;4.45;;;21.30;30.50;;;;;;5036910;28;20356;-48
2022/01/13 03:15:27;;;;;;;5.00;4.25;;;21.30;30.50;;;;;;5044716;28;20037;-48
2022/01/13 03:17:53;;;;;;;5.60;4.38;;;21.30;30.60;;;;;;5046243;28;20029;-48
2022/01/13 03:20:19;;;;;;;5.50;4.55;;;21.30;30.60;;;;;;5037067;28;20479;-52
2022/01/13 03:22:45;;;;;;;5.18;4.65;;;21.30;30.60;;;;;;5052550;28;20096;-46
2022/01/13 03:25:12;;;;;;;5.28;4.60;;;21.30;30.60;;;;;;5028982;28;20048;-47
2022/01/13 03:27:40;;;;;;;5.47;4.32;;;21.30;30.60;;;;;;5046050;28;20060;-44
2022/01/13 03:30:09;;;;;;;5.00;4.10;;;21.30;30.60;;;;;;5039398;28;20040;-48
2022/01/13 03:32:36;;;;;;;4.15;3.60;;;21.30;30.60;;;;;;5042353;28;20080;-49
2022/01/13 03:35:04;;;;;;;5.53;4.43;;;21.30;30.60;;;;;;5036842;28;20378;-50
2022/01/13 03:37:30;;;;;;;5.32;4.60;;;21.30;30.60;;;;;;5037246;28;20033;-47
2022/01/13 03:39:58;;;;;;;5.45;4.53;;;21.30;30.60;;;;;;5033989;28;20061;-49
2022/01/13 03:42:24;;;;;;;5.07;4.15;;;21.30;30.60;;;;;;5043401;28;20088;-52
2022/01/13 03:44:50;;;;;;;4.75;3.95;;;21.20;30.60;;;;;;5040487;28;20017;-48
2022/01/13 03:47:16;;;;;;;5.43;4.15;;;21.20;30.60;;;;;;5040465;28;20068;-50
2022/01/13 03:49:43;;;;;;;5.35;4.25;;;21.30;30.70;;;;;;5035777;28;20033;-46
2022/01/13 03:52:24;;;;;;;4.60;3.92;;;21.20;30.60;;;;;;5041690;28;20033;-52
2022/01/13 03:55:38;;;;;;;5.93;4.22;;;21.20;30.60;;;;;;5034965;28;20538;-47
2022/01/13 03:58:32;;;;;;;4.50;3.78;;;21.20;30.60;;;;;;5024518;28;20030;-51
2022/01/13 04:01:16;;;;;;;5.60;4.30;;;21.20;30.60;;;;;;5046449;28;20432;-55
2022/01/13 04:03:42;;;;;;;5.17;4.20;;;21.20;30.70;;;;;;5049186;28;20028;-51
2022/01/13 04:06:33;;;;;;;4.95;4.05;;;21.20;30.70;;;;;;5054427;28;20087;-50
2022/01/13 04:08:59;;;;;;;4.43;3.58;;;21.20;30.70;;;;;;5036969;28;20021;-49
2022/01/13 04:11:31;;;;;;;4.40;3.67;;;21.10;30.70;;;;;;5040347;28;20028;-47
2022/01/13 04:14:04;;;;;;;4.45;3.90;;;21.10;30.70;;;;;;5045248;28;20036;-46
2022/01/13 04:16:33;;;;;;;4.07;3.67;;;21.20;30.80;;;;;;5041443;28;20027;-49
2022/01/13 04:19:04;;;;;;;5.05;4.28;;;21.20;30.80;;;;;;5053198;28;20074;-49
2022/01/13 04:21:36;;;;;;;4.35;3.75;;;21.10;30.70;;;;;;5040364;28;20025;-53
2022/01/13 04:24:03;;;;;;;5.13;4.13;;;21.20;30.80;;;;;;5042605;28;20103;-49
2022/01/13 04:26:34;;;;;;;4.25;3.85;;;21.10;30.70;;;;;;5040065;28;20041;-48
2022/01/13 04:31:40;;;;;;;4.80;4.28;;;21.10;30.70;;;;;;5046143;28;20415;-47
2022/01/13 04:34:07;;;;;;;4.90;3.92;;;21.10;30.70;;;;;;5037009;28;20025;-49
2022/01/13 04:36:32;;;;;;;5.30;4.60;;;21.10;30.70;;;;;;5049293;28;20028;-50
2022/01/13 04:38:58;;;;;;;5.75;4.10;;;21.10;30.70;;;;;;5036927;28;20025;-50
2022/01/13 04:41:34;;;;;;;4.55;3.95;;;21.10;30.70;;;;;;5041657;28;20478;-48
2022/01/13 04:44:01;;;;;;;5.32;3.97;;;21.10;30.70;;;;;;5038157;28;20026;-50
2022/01/13 04:46:27;;;;;;;4.72;4.03;;;21.10;30.70;;;;;;5038108;28;20033;-49
2022/01/13 04:48:53;;;;;;;5.90;4.18;;;21.10;30.70;;;;;;5049715;28;20151;-52
2022/01/13 04:51:19;;;;;;;4.22;3.83;;;21.10;30.80;;;;;;5039583;28;20022;-51
2022/01/13 04:53:45;;;;;;;4.75;4.03;;;21.10;30.70;;;;;;5049769;28;20036;-47
2022/01/13 04:56:15;;;;;;;5.13;4.43;;;21.10;30.70;;;;;;5041789;28;20344;-47
2022/01/13 04:58:41;;;;;;;5.03;4.45;;;21.10;30.80;;;;;;5049256;28;20082;-49
2022/01/13 05:01:08;;;;;;;4.90;4.13;;;21.10;30.80;;;;;;5046524;28;20477;-50
2022/01/13 05:03:34;;;;;;;4.75;4.03;;;21.10;30.80;;;;;;5041094;28;20021;-55
2022/01/13 05:06:00;;;;;;;4.57;4.13;;;21.10;30.80;;;;;;5036182;28;20033;-51
2022/01/13 05:08:25;;;;;;;4.88;4.07;;;21.10;30.70;;;;;;5039024;28;20013;-48
2022/01/13 05:10:51;;;;;;;5.43;4.50;;;21.00;30.70;;;;;;5044712;28;20025;-48
2022/01/13 05:13:17;;;;;;;5.38;4.75;;;21.10;30.70;;;;;;5048488;28;20017;-50
2022/01/13 05:15:44;;;;;;;4.70;4.20;;;21.10;30.70;;;;;;5036220;28;20109;-49
2022/01/13 05:18:22;;;;;;;5.45;4.47;;;21.10;30.70;;;;;;5022118;28;20029;-49
2022/01/13 05:20:55;;;;;;;5.03;3.95;;;21.00;30.70;;;;;;5040669;28;20076;-51
2022/01/13 05:23:21;;;;;;;4.70;3.78;;;21.00;30.70;;;;;;5036855;28;20029;-48
2022/01/13 05:25:50;;;;;;;4.82;4.20;;;21.00;30.70;;;;;;5041433;28;20041;-50
2022/01/13 05:28:15;;;;;;;4.88;4.25;;;21.00;30.70;;;;;;5050713;28;20364;-52
2022/01/13 05:30:42;;;;;;;5.63;4.35;;;21.00;30.70;;;;;;5038379;28;20064;-47
2022/01/13 05:33:08;;;;;;;5.05;4.30;;;21.00;30.70;;;;;;5021218;28;20509;-49
2022/01/13 05:35:36;;;;;;;4.82;3.88;;;21.00;30.80;;;;;;5038424;28;20074;-45
2022/01/13 05:38:03;;;;;;;5.05;3.92;;;21.00;30.70;;;;;;5036825;28;20029;-53
2022/01/13 05:40:29;;;;;;;4.30;3.85;;;21.00;30.80;;;;;;5024269;28;20376;-46
2022/01/13 05:42:55;;;;;;;4.55;3.88;;;21.00;30.70;;;;;;5035731;28;20021;-50
2022/01/13 05:45:24;;;;;;;4.50;3.70;;;21.00;30.70;;;;;;5050028;28;20037;-50
2022/01/13 05:47:50;;;;;;;4.95;4.15;;;21.00;30.70;;;;;;5036622;28;20037;-51
2022/01/13 05:50:18;;;;;;;4.32;3.92;;;21.00;30.80;;;;;;5049631;28;20164;-47
2022/01/13 05:52:44;;;;;;;4.53;3.92;;;21.00;30.80;;;;;;5035674;28;20090;-51
2022/01/13 05:55:10;;;;;;;4.53;3.95;;;21.00;30.80;;;;;;5049391;28;20024;-53
2022/01/13 05:57:36;;;;;;;5.15;4.22;;;21.00;30.80;;;;;;5045863;28;20037;-45
2022/01/13 06:00:04;;;;;;;5.03;3.95;;;20.90;30.80;;;;;;5050144;28;20439;-47
2022/01/13 06:02:38;;;;;;;5.10;4.15;;;20.90;31.50;;;;;;5052927;28;20028;-51
2022/01/13 06:05:05;;;;;;;4.20;3.80;;;20.90;30.90;;;;;;5040792;28;20464;-48
2022/01/13 06:07:30;;;;;;;4.95;3.92;;;20.90;30.90;;;;;;5038234;28;20033;-47
2022/01/13 06:09:56;;;;;;;4.10;3.70;;;20.90;30.90;;;;;;5045514;28;20025;-50
2022/01/13 06:12:32;;;;;;;4.60;3.88;;;20.90;30.90;;;;;;5035090;28;20079;-46
2022/01/13 06:15:03;;;;;;;4.05;3.65;;;20.90;30.90;;;;;;5047305;28;20036;-51
2022/01/13 06:17:29;;;;;;;4.32;3.58;;;20.90;30.90;;;;;;5038828;28;20082;-49
2022/01/13 06:19:56;;;;;;;4.22;3.53;;;20.90;30.90;;;;;;5045579;28;20358;-44
2022/01/13 06:22:25;;;;;;;4.50;3.75;;;20.90;30.90;;;;;;5039485;28;20091;-50
2022/01/13 06:24:52;;;;;;;4.05;3.60;;;20.90;30.90;;;;;;5040360;28;20086;-49
2022/01/13 06:27:19;;;;;;;3.85;3.45;;;20.90;30.90;;;;;;5035987;28;20048;-46
2022/01/13 06:29:45;;;;;;;3.90;3.28;;;20.90;30.90;;;;;;5037150;28;20401;-51
2022/01/13 06:32:10;;;;;;;4.35;3.75;;;20.80;30.90;;;;;;5038989;28;20057;-49
2022/01/13 06:34:36;;;;;;;4.15;3.50;;;20.90;30.90;;;;;;5038776;28;20305;-47
2022/01/13 06:37:02;;;;;;;4.07;3.55;;;20.80;30.90;;;;;;5049226;28;20432;-51
2022/01/13 06:39:28;;;;;;;4.00;3.22;;;20.90;30.90;;;;;;5045772;28;20026;-48
2022/01/13 06:41:54;;;;;;;3.47;3.10;;;20.90;30.90;;;;;;5037051;28;20375;-47
2022/01/13 06:44:20;;;;;;;3.92;3.30;;;20.80;30.80;;;;;;5037628;28;20106;-51
2022/01/13 06:46:45;;;;;;;3.60;3.05;;;20.90;30.90;;;;;;5051474;28;20167;-50
2022/01/13 06:49:11;;;;;;;4.43;3.50;;;20.90;30.90;;;;;;5041116;28;20025;-45
2022/01/13 06:51:37;;;;;;;4.38;3.40;;;20.90;30.80;;;;;;5045092;28;20025;-45
2022/01/13 06:54:03;;;;;;;5.15;3.33;;;20.90;30.80;;;;;;5047606;28;20027;-47
2022/01/13 06:56:30;;;;;;;3.45;3.10;;;20.90;31.40;;;;;;5037096;28;20266;-51
2022/01/13 06:58:56;;;;;;;4.15;3.13;;;20.90;30.70;;;;;;5035255;28;20021;-49
2022/01/13 07:01:23;;;;;;;3.80;3.20;;;20.90;30.70;;;;;;5043774;28;20028;-49
2022/01/13 07:03:49;;;;;;;3.70;2.97;;;20.90;30.70;;;;;;5039579;28;20021;-52
2022/01/13 07:06:15;;;;;;;3.92;3.30;;;20.90;30.70;;;;;;5047554;28;20153;-45
2022/01/13 07:08:41;;;;;;;3.53;3.17;;;20.90;30.70;;;;;;5036812;28;20025;-45
2022/01/13 07:11:07;;;;;;;3.92;3.55;;;20.90;30.70;;;;;;5040004;28;20037;-49
2022/01/13 07:13:33;;;;;;;3.25;2.95;;;20.90;30.70;;;;;;5035007;28;20022;-47
2022/01/13 07:16:01;;;;;;;3.65;2.88;;;20.80;30.70;;;;;;5038404;28;20028;-50
2022/01/13 07:18:30;;;;;;;3.85;3.45;;;20.80;30.70;;;;;;5049670;28;20044;-45
2022/01/13 07:20:57;;;;;;;3.80;2.95;;;20.90;30.70;;;;;;5049078;28;20298;-49
2022/01/13 07:23:23;;;;;;;3.63;3.20;;;20.80;30.70;;;;;;5051185;28;20067;-46
2022/01/13 07:25:49;;;;;;;3.60;3.10;;;20.80;30.70;;;;;;5046669;28;20558;-49
2022/01/13 07:28:15;;;;;;;3.78;3.38;;;20.80;30.70;;;;;;5054452;28;20016;-46
2022/01/13 07:30:41;;;;;;;3.55;3.10;;;20.80;30.70;;;;;;5051923;28;20045;-46
2022/01/13 07:33:07;;;;;;;3.83;3.30;;;20.80;30.70;;;;;;5054606;28;20440;-49
2022/01/13 07:35:33;;;;;;;3.75;3.40;;;20.80;30.70;;;;;;5029527;28;20024;-51
2022/01/13 07:37:58;;;;;;;4.45;3.30;;;20.80;30.70;;;;;;5056575;28;20029;-46
2022/01/13 07:40:24;;;;;;;3.85;3.50;;;20.80;30.80;;;;;;5055477;28;20025;-49
2022/01/13 07:42:50;;;;;;;4.35;3.58;;;20.80;30.80;;;;;;5055702;28;20032;-45
2022/01/13 07:45:18;;;;;;;4.28;3.65;;;20.80;30.90;;;;;;5058151;28;20033;-45
2022/01/13 07:47:44;;;;;;;4.15;3.35;;;20.70;30.90;;;;;;5056744;28;20482;-50
2022/01/13 07:50:13;;;;;;;4.93;3.60;;;20.70;31.10;;;;;;5058194;28;20475;-48
2022/01/13 07:52:39;;;;;;;3.78;3.28;;;20.70;31.30;;;;;;5057338;28;20103;-46
2022/01/13 07:55:05;;;;;;;4.25;3.45;;;20.70;31.40;;;;;;5057121;28;20029;-52
2022/01/13 07:57:31;;;;;;;4.22;3.58;;;20.70;31.50;;;;;;5056623;28;20060;-50
2022/01/13 07:59:56;;;;;;;4.18;3.35;;;20.80;31.50;;;;;;5050921;28;20025;-47
2022/01/13 08:02:22;;;;;;;4.13;3.67;;;20.80;31.50;;;;;;5055664;28;20036;-49
2022/01/13 08:04:49;;;;;;;3.65;3.13;;;20.90;31.50;;;;;;5039745;28;20375;-50
2022/01/13 08:07:16;;;;;;;4.45;3.67;;;21.00;31.40;;;;;;5057316;28;20347;-45
2022/01/13 08:09:42;;;;;;;4.30;3.58;;;21.10;31.40;;;;;;5057519;28;20040;-49
2022/01/13 08:12:08;;;;;;;4.13;3.72;;;21.20;31.30;;;;;;5058048;28;20025;-45
2022/01/13 08:14:34;;;;;;;4.78;3.67;;;21.30;31.30;;;;;;5039066;28;20044;-49
2022/01/13 08:17:02;;;;;;;4.30;3.78;;;21.40;31.20;;;;;;5055428;28;20138;-48
2022/01/13 08:19:48;;;;;;;4.03;3.45;;;21.50;31.10;;;;;;5057376;28;20051;-50
2022/01/13 08:22:15;;;;;;;4.05;3.53;;;21.60;31.00;;;;;;5047193;28;20020;-50
2022/01/13 08:24:42;;;;;;;4.13;3.65;;;21.70;31.00;;;;;;5055595;28;20475;-48
2022/01/13 08:27:09;;;;;;;3.88;3.25;;;21.70;30.90;;;;;;5056329;28;20355;-48
2022/01/13 08:29:35;;;;;;;3.33;3.00;;;21.90;31.00;;;;;;5055275;28;20420;-46
2022/01/13 08:32:01;;;;;;;4.35;3.85;;;22.00;31.00;;;;;;5057149;28;20091;-48
2022/01/13 08:34:27;;;;;;;3.97;3.20;;;22.10;31.00;;;;;;5052352;28;20013;-48
2022/01/13 08:36:55;;;;;;;3.67;2.90;;;22.20;30.90;;;;;;5056823;28;20293;-45
2022/01/13 08:39:21;;;;;;;3.90;2.97;;;22.30;30.90;;;;;;5056157;28;20032;-44
2022/01/13 08:41:48;;;;;;;3.70;3.40;;;22.40;30.90;;;;;;5056404;28;20021;-46
2022/01/13 08:44:14;;;;;;;3.60;3.10;;;22.50;30.90;;;;;;5055894;28;20027;-52
2022/01/13 08:46:40;;;;;;;3.55;3.22;;;22.60;30.80;;;;;;5056484;28;20432;-50
2022/01/13 08:49:06;;;;;;;3.90;3.38;;;22.70;30.70;;;;;;5057009;28;20032;-46
2022/01/13 08:51:32;;;;;;;3.33;3.03;;;22.70;30.50;;;;;;5057132;28;20017;-51
2022/01/13 08:53:58;;;;;;;3.53;3.10;;;22.80;30.40;;;;;;5057077;28;20031;-47
2022/01/13 08:56:24;;;;;;;3.80;3.40;;;22.90;30.40;;;;;;5056670;28;20041;-48
2022/01/13 08:58:49;;;;;;;3.63;3.33;;;22.90;30.20;;;;;;5056376;28;20029;-49
2022/01/13 09:01:15;;;;;;;3.13;2.83;;;23.00;30.10;;;;;;5056348;28;20033;-47
2022/01/13 09:03:41;;;;;;;3.90;3.50;;;23.10;30.00;;;;;;5056143;28;20064;-45
2022/01/13 09:06:07;;;;;;;3.60;3.17;;;23.10;30.00;;;;;;5055917;28;20036;-47
2022/01/13 09:08:33;;;;;;;3.40;3.10;;;23.20;30.00;;;;;;5055904;28;20056;-46
2022/01/13 09:10:59;;;;;;;4.00;3.55;;;23.20;29.90;;;;;;5057097;28;20064;-50
2022/01/13 09:13:26;;;;;;;3.00;2.70;;;23.30;29.80;;;;;;5056319;28;20044;-47
2022/01/13 09:16:01;;;;;;;3.67;2.90;;;23.30;29.70;;;;;;5055964;28;20098;-50
2022/01/13 09:19:08;;;;;;;3.05;2.47;;;23.40;29.70;;;;;;5052962;28;20025;-48
2022/01/13 09:21:19;;;;;;;2.85;2.40;;;23.40;29.60;;;;;;5051499;28;20168;-51
2022/01/13 09:23:45;;;;;;;3.30;2.70;;;23.50;29.60;;;;;;5055380;28;20116;-46
2022/01/13 09:26:12;;;;;;;2.47;2.28;;;23.50;29.50;;;;;;5056223;28;20041;-47
2022/01/13 09:28:39;;;;;;;2.90;2.60;;;23.60;29.50;;;;;;5057040;28;20313;-44
2022/01/13 09:31:06;;;;;;;2.80;2.42;;;23.70;29.40;;;;;;5038524;28;20403;-45
2022/01/13 09:33:32;;;;;;;2.97;2.60;;;23.70;29.90;;;;;;5056618;28;20029;-45
2022/01/13 09:35:59;;;;;;;3.20;2.90;;;23.70;29.30;;;;;;5055837;28;20040;-50
2022/01/13 09:38:25;;;;;;;2.95;2.65;;;23.80;29.20;;;;;;5055304;28;20100;-47
2022/01/13 09:40:52;;;;;;;3.03;2.72;;;23.90;29.20;;;;;;5055808;28;20120;-44
2022/01/13 09:43:25;;;;;;;2.88;2.38;;;23.90;29.20;;;;;;5056213;28;20037;-48
2022/01/13 09:45:52;;;;;;;2.92;2.50;;;24.00;29.20;;;;;;5055871;28;20025;-47
2022/01/13 09:48:18;;;;;;;2.20;2.00;;;24.00;29.10;;;;;;5056041;28;20020;-50
2022/01/13 09:50:48;;;;;;;2.30;2.10;;;24.00;29.00;;;;;;5055604;28;20104;-48
2022/01/13 09:53:15;;;;;;;2.50;2.30;;;24.10;29.00;;;;;;5055793;28;20060;-45
2022/01/13 09:55:43;;;;;;;3.03;2.53;;;24.00;28.90;;;;;;5055381;28;20028;-46
2022/01/13 09:58:10;;;;;;;2.60;2.35;;;24.10;29.00;;;;;;5055363;28;20436;-45
2022/01/13 10:00:38;;;;;;;2.45;2.25;;;24.10;28.90;;;;;;5055501;28;20485;-48
2022/01/13 10:03:15;;;;;;;2.17;1.98;;;24.10;28.90;;;;;;5050612;28;20036;-50
2022/01/13 10:05:53;;;;;;;2.03;1.83;;;24.10;28.90;;;;;;5053655;28;20056;-48
2022/01/13 10:08:23;;;;;;;2.13;1.92;;;24.00;28.90;;;;;;5046890;28;20047;-48
2022/01/13 10:10:49;;;;;;;2.70;2.28;;;24.00;29.00;;;;;;5042437;28;20025;-51
2022/01/13 10:13:39;;;;;;;2.22;2.03;;;23.90;28.90;;;;;;5035670;28;20033;-51
2022/01/13 10:16:24;;;;;;;2.60;2.30;;;23.90;29.00;;;;;;5047477;28;20025;-49
2022/01/13 10:18:51;;;;;;;2.67;2.33;;;23.80;29.00;;;;;;5055056;28;20060;-46
2022/01/13 10:21:19;;;;;;;2.33;2.13;;;23.70;29.00;;;;;;5055636;28;20020;-47
2022/01/13 10:24:13;;;;;;;2.30;2.10;;;23.70;29.00;;;;;;5044715;28;20033;-46
2022/01/13 10:26:40;;;;;;;2.75;2.20;;;23.60;29.00;;;;;;5045057;28;20047;-45
2022/01/13 10:29:08;;;;;;;2.90;2.42;;;23.60;29.10;;;;;;5054554;28;20166;-45
2022/01/13 10:31:46;;;;;;;2.75;2.40;;;23.50;29.20;;;;;;5054317;28;20096;-47
2022/01/13 10:34:21;;;;;;;2.65;2.22;;;23.50;29.20;;;;;;5051758;28;20057;-45
2022/01/13 10:37:10;;;;;;;2.75;2.40;;;23.40;29.20;;;;;;5052716;28;20494;-47
2022/01/13 10:39:56;;;;;;;2.67;2.33;;;23.40;29.30;;;;;;5053887;28;20024;-49
2022/01/13 10:45:08;;;;;;;2.65;2.33;;;23.30;29.30;;;;;;5049779;28;20433;-48
2022/01/13 10:47:34;;;;;;;2.63;2.40;;;23.20;29.30;;;;;;5035324;28;20041;-46
2022/01/13 10:50:07;;;;;;;2.40;2.20;;;23.20;29.40;;;;;;5051053;28;20025;-47
2022/01/13 10:52:33;;;;;;;2.60;2.30;;;23.20;29.40;;;;;;5054915;28;20094;-46
2022/01/13 10:55:11;;;;;;;2.85;2.30;;;23.10;29.40;;;;;;5050016;28;20025;-44
2022/01/13 10:57:43;;;;;;;2.97;2.20;;;23.10;29.50;;;;;;5042228;28;20461;-47
2022/01/13 11:00:21;;;;;;;2.85;2.22;;;23.10;29.50;;;;;;5051159;28;20047;-49
2022/01/13 11:02:57;;;;;;;2.35;2.15;;;23.10;29.50;;;;;;5042369;28;20044;-46
2022/01/13 11:05:24;;;;;;;2.53;2.33;;;23.10;29.50;;;;;;5048352;28;20067;-51
2022/01/13 11:07:50;;;;;;;2.92;2.40;;;23.00;29.60;;;;;;5052539;28;20025;-50
2022/01/13 11:10:16;;;;;;;2.83;2.35;;;23.00;29.60;;;;;;5054782;28;20095;-47
2022/01/13 11:12:44;;;;;;;2.88;2.38;;;23.00;29.60;;;;;;5052952;28;20033;-48
2022/01/13 11:15:16;;;;;;;2.33;2.03;;;23.00;29.60;;;;;;5053990;28;20021;-47
2022/01/13 11:17:44;;;;;;;2.33;2.03;;;23.00;29.60;;;;;;5054919;28;20090;-49
2022/01/13 11:20:12;;;;;;;2.47;2.03;;;22.90;29.60;;;;;;5030456;28;20395;-46
2022/01/13 11:22:40;;;;;;;2.72;2.22;;;22.90;29.60;;;;;;5054838;28;20029;-48
2022/01/13 11:25:08;;;;;;;2.42;2.20;;;22.90;29.60;;;;;;5054049;28;20139;-49
2022/01/13 11:27:35;;;;;;;2.72;2.20;;;23.00;29.60;;;;;;5037474;28;20094;-49
2022/01/13 11:30:03;;;;;;;2.47;2.22;;;22.90;29.60;;;;;;5049705;28;20071;-50
2022/01/13 11:32:29;;;;;;;2.40;2.08;;;23.00;29.60;;;;;;5052087;28;20067;-55
2022/01/13 11:34:58;;;;;;;2.70;2.42;;;22.90;29.70;;;;;;5047070;28;20056;-44
2022/01/13 11:37:28;;;;;;;4.43;2.53;;;22.90;29.70;;;;;;5023479;28;20340;-49
2022/01/13 11:39:54;;;;;;;2.63;2.42;;;23.00;29.80;;;;;;5037009;28;20329;-48
2022/01/13 11:42:21;;;;;;;3.05;2.70;;;23.00;29.90;;;;;;5052701;28;20074;-51
2022/01/13 11:45:13;;;;;;;2.55;2.30;;;23.00;29.90;;;;;;5051865;28;20070;-51
2022/01/13 11:47:40;;;;;;;2.90;2.50;;;23.10;29.90;;;;;;5036077;28;20041;-52
2022/01/13 11:50:21;;;;;;;2.72;2.20;;;23.00;29.90;;;;;;5052329;28;20090;-52
2022/01/13 11:52:53;;;;;;;3.08;2.45;;;23.10;30.00;;;;;;5032902;28;20028;-54
2022/01/13 11:55:24;;;;;;;2.63;2.28;;;23.20;30.10;;;;;;5049142;28;20040;-56
2022/01/13 11:57:51;;;;;;;2.88;2.53;;;23.30;30.20;;;;;;5047658;28;20460;-58
2022/01/13 12:00:22;;;;;;;2.55;2.25;;;23.30;30.20;;;;;;5050920;28;20090;-55
2022/01/13 12:02:48;;;;;;;2.50;2.30;;;23.40;30.30;;;;;;5053369;28;20040;-55
2022/01/13 12:05:17;;;;;;;2.45;2.17;;;23.50;30.30;;;;;;5050173;28;20021;-46
2022/01/13 12:07:55;;;;;;;2.72;2.28;;;23.60;30.30;;;;;;5034073;28;20456;-51
2022/01/13 12:10:20;;;;;;;2.60;2.28;;;23.70;30.30;;;;;;5047108;28;20082;-48
2022/01/13 12:12:47;;;;;;;3.05;2.15;;;23.70;30.30;;;;;;5053829;28;20025;-45
2022/01/13 12:15:27;;;;;;;3.25;2.50;;;23.80;30.30;;;;;;5052481;28;20028;-42
2022/01/13 12:17:57;;;;;;;2.58;2.25;;;23.90;30.30;;;;;;5055765;28;20040;-49
2022/01/13 12:20:40;;;;;;;2.60;2.00;;;23.90;30.20;;;;;;5056634;28;20020;-51
2022/01/13 12:23:41;;;;;;;2.75;2.20;;;24.00;30.10;;;;;;5056655;28;20103;-43
2022/01/13 12:26:31;;;;;;;3.80;2.03;;;24.10;30.00;;;;;;5051085;28;20036;-46
2022/01/13 12:29:30;;;;;;;3.85;2.05;;;24.10;30.00;;;;;;5057297;28;20429;-50
2022/01/13 12:32:07;;;;;;;2.88;2.13;;;24.10;30.00;;;;;;5047233;28;20148;-45
2022/01/13 12:34:32;;;;;;;4.22;2.05;;;24.10;30.00;;;;;;5050167;28;20021;-42
2022/01/13 12:37:20;;;;;;;2.03;1.83;;;24.10;29.90;;;;;;5052039;28;20321;-45
2022/01/13 12:39:52;;;;;;;2.20;2.00;;;24.20;29.90;;;;;;5055828;28;20055;-46
2022/01/13 12:42:50;;;;;;;2.08;1.88;;;24.20;29.80;;;;;;5056734;28;20025;-42
2022/01/13 12:45:33;;;;;;;2.70;2.17;;;24.20;29.80;;;;;;5039530;28;20321;-47
2022/01/13 12:48:06;;;;;;;2.33;1.98;;;24.20;29.80;;;;;;5055578;28;20075;-43
2022/01/13 12:50:41;;;;;;;2.00;1.80;;;24.20;29.70;;;;;;5056898;28;20067;-44
2022/01/13 12:53:11;;;;;;;2.50;1.80;;;24.30;29.70;;;;;;5054687;28;20021;-46
2022/01/13 12:55:39;;;;;;;2.25;1.80;;;24.30;29.60;;;;;;5056410;28;20444;-47
2022/01/13 12:58:06;;;;;;;2.00;1.75;;;24.30;29.60;;;;;;5055615;28;20045;-45
2022/01/13 13:00:32;;;;;;;2.15;1.90;;;24.30;29.60;;;;;;5046854;28;20039;-46
2022/01/13 13:03:05;;;;;;;2.22;1.90;;;24.30;29.60;;;;;;5055875;28;20063;-45
2022/01/13 13:05:38;;;;;;;2.17;1.90;;;24.40;29.60;;;;;;5056432;28;20021;-46